Time;durP1;ratioP1;P1;durP2;ratioP2;P2;SDS_P1;SDS_P2;PMS_P1;PMS_P2;Temp;Humidity;BMP_temperature;BMP_pressure;BME280_temperature;BME280_humidity;BME280_pressure;Samples;Min_cycle;Max_cycle;Signal;HPM_P1;HPM_P2
2022/12/21 00:01:18;;;;;;;373.53;347.60;;;7.80;22.80;;;;;;5095523;28;20435;-70
2022/12/21 00:03:45;;;;;;;154.70;141.90;;;7.90;22.60;;;;;;5095665;28;20427;-70
2022/12/21 00:06:11;;;;;;;363.07;337.50;;;7.80;23.20;;;;;;5094089;28;20495;-71
2022/12/21 00:08:42;;;;;;;248.43;230.97;;;7.90;23.50;;;;;;5077737;28;20427;-69
2022/12/21 00:11:08;;;;;;;411.27;380.80;;;7.80;24.00;;;;;;5077211;28;20415;-69
2022/12/21 00:13:34;;;;;;;197.53;182.43;;;7.80;24.50;;;;;;5076824;28;20430;-70
2022/12/21 00:16:05;;;;;;;510.77;475.67;;;7.90;24.50;;;;;;5077976;28;20508;-69
2022/12/21 00:18:35;;;;;;;540.27;506.00;;;7.90;24.70;;;;;;5077811;28;20577;-68
2022/12/21 00:21:04;;;;;;;148.97;136.87;;;7.90;24.60;;;;;;5077746;28;20429;-70
2022/12/21 00:23:31;;;;;;;312.43;290.93;;;8.00;25.00;;;;;;5093698;28;20426;-69
2022/12/21 00:25:59;;;;;;;464.70;433.73;;;8.00;25.70;;;;;;5077446;28;20494;-69
2022/12/21 00:28:25;;;;;;;276.70;254.97;;;7.90;25.60;;;;;;5077896;28;20852;-70
2022/12/21 00:30:50;;;;;;;358.47;330.83;;;7.80;26.10;;;;;;5078740;28;20427;-69
2022/12/21 00:33:16;;;;;;;421.93;391.30;;;7.70;26.50;;;;;;5079080;28;20490;-71
2022/12/21 00:35:47;;;;;;;320.87;299.30;;;7.60;27.30;;;;;;5078316;28;20295;-70
2022/12/21 00:38:12;;;;;;;403.00;372.60;;;7.50;28.30;;;;;;5079505;28;20188;-70
2022/12/21 00:40:38;;;;;;;341.63;317.37;;;7.40;28.90;;;;;;5079852;28;20411;-70
2022/12/21 00:43:03;;;;;;;342.13;318.43;;;7.40;29.40;;;;;;5079713;28;20653;-70
2022/12/21 00:45:28;;;;;;;507.63;470.53;;;7.40;29.90;;;;;;5078987;28;20201;-70
2022/12/21 00:47:54;;;;;;;525.63;488.20;;;7.40;29.90;;;;;;5078248;28;20173;-69
2022/12/21 00:50:20;;;;;;;597.77;555.97;;;7.40;30.00;;;;;;5078808;28;20173;-69
2022/12/21 00:52:45;;;;;;;415.63;384.77;;;7.40;31.20;;;;;;5079362;28;20173;-69
2022/12/21 00:55:11;;;;;;;195.17;181.10;;;7.40;31.50;;;;;;5078515;28;20601;-69
2022/12/21 00:57:36;;;;;;;421.77;394.07;;;7.40;31.30;;;;;;5094269;28;20642;-69
2022/12/21 01:00:03;;;;;;;434.13;403.83;;;7.30;31.80;;;;;;5089214;28;20186;-70
2022/12/21 01:02:29;;;;;;;546.07;506.90;;;7.20;33.00;;;;;;5059357;28;20189;-69
2022/12/21 01:04:55;;;;;;;202.97;187.57;;;7.20;34.30;;;;;;5057394;28;20945;-69
2022/12/21 01:07:20;;;;;;;300.47;279.27;;;7.20;34.80;;;;;;5060569;28;20679;-69
2022/12/21 01:09:46;;;;;;;416.27;385.93;;;7.20;34.80;;;;;;5060285;28;20180;-68
2022/12/21 01:12:11;;;;;;;435.47;405.97;;;7.20;35.00;;;;;;5058975;28;20181;-69
2022/12/21 01:14:37;;;;;;;457.20;426.57;;;7.20;35.20;;;;;;5059323;28;20188;-69
2022/12/21 01:17:02;;;;;;;326.30;304.10;;;7.10;36.60;;;;;;5058709;28;20202;-69
2022/12/21 01:19:28;;;;;;;557.40;516.67;;;7.00;37.50;;;;;;5059531;28;20366;-69
2022/12/21 01:21:53;;;;;;;334.10;312.00;;;7.00;38.10;;;;;;5059387;28;20189;-70
2022/12/21 01:24:19;;;;;;;340.17;318.03;;;7.00;39.10;;;;;;5059379;28;20188;-70
2022/12/21 01:26:44;;;;;;;441.20;410.23;;;7.00;39.80;;;;;;5059034;28;20209;-69
2022/12/21 01:29:14;;;;;;;352.13;326.90;;;7.00;39.80;;;;;;5056304;28;20639;-70
2022/12/21 01:31:39;;;;;;;298.37;277.73;;;7.00;39.80;;;;;;5055051;28;20172;-70
2022/12/21 01:34:05;;;;;;;343.13;317.40;;;7.00;39.80;;;;;;5056230;28;20409;-70
2022/12/21 01:36:31;;;;;;;432.83;404.37;;;7.00;39.80;;;;;;5056332;28;20578;-70
2022/12/21 01:38:56;;;;;;;167.43;154.57;;;7.10;40.70;;;;;;5056363;28;20178;-71
2022/12/21 01:41:25;;;;;;;388.43;361.77;;;7.10;41.20;;;;;;5055538;28;20234;-70
2022/12/21 01:43:59;;;;;;;286.20;266.50;;;7.20;40.80;;;;;;5056297;28;20288;-70
2022/12/21 01:46:39;;;;;;;372.80;344.93;;;7.20;41.40;;;;;;5055203;28;20990;-71
2022/12/21 01:49:19;;;;;;;417.43;387.57;;;7.20;41.60;;;;;;5056591;28;20415;-71
2022/12/21 01:51:50;;;;;;;329.07;307.33;;;7.30;41.90;;;;;;5055760;28;20423;-71
2022/12/21 01:54:23;;;;;;;335.83;311.80;;;7.30;42.90;;;;;;5057141;28;20822;-71
2022/12/21 01:56:52;;;;;;;300.13;279.23;;;7.30;42.50;;;;;;5056778;28;20453;-71
2022/12/21 01:59:28;;;;;;;231.03;215.23;;;7.30;42.50;;;;;;5057116;28;20465;-71
2022/12/21 02:01:55;;;;;;;449.50;417.73;;;7.30;43.10;;;;;;5057251;28;20419;-71
2022/12/21 02:04:21;;;;;;;289.70;270.57;;;7.40;42.90;;;;;;5057287;28;20419;-71
2022/12/21 02:06:53;;;;;;;414.70;387.93;;;7.40;43.40;;;;;;5057448;28;20478;-71
2022/12/21 02:09:19;;;;;;;476.20;439.13;;;7.50;44.40;;;;;;5055331;28;20428;-71
2022/12/21 02:11:45;;;;;;;428.90;395.57;;;7.50;43.40;;;;;;5056462;28;20423;-71
2022/12/21 02:14:14;;;;;;;288.10;268.43;;;7.60;42.80;;;;;;5056697;28;20416;-71
2022/12/21 02:16:49;;;;;;;271.40;251.10;;;7.60;42.70;;;;;;5057439;28;20442;-71
2022/12/21 02:19:57;;;;;;;439.10;405.47;;;7.60;44.20;;;;;;5055240;28;20408;-71
2022/12/21 02:23:00;;;;;;;428.23;394.90;;;7.60;43.80;;;;;;5053878;28;20438;-72
2022/12/21 02:25:55;;;;;;;426.03;395.87;;;7.80;45.20;;;;;;5053619;28;20443;-71
2022/12/21 02:28:45;;;;;;;387.50;360.07;;;7.90;43.90;;;;;;5056367;28;20470;-71
2022/12/21 02:31:37;;;;;;;259.23;241.10;;;8.00;45.40;;;;;;5056878;28;20398;-71
2022/12/21 02:34:28;;;;;;;309.07;286.83;;;8.10;44.90;;;;;;5054590;28;20852;-71
2022/12/21 02:37:19;;;;;;;320.57;298.07;;;8.20;44.40;;;;;;5056385;28;20527;-71
2022/12/21 02:40:17;;;;;;;434.77;402.83;;;8.30;43.30;;;;;;5054767;28;21017;-71
2022/12/21 02:46:27;;;;;;;272.53;252.00;;;8.40;43.30;;;;;;5059371;28;20510;-71
2022/12/21 02:48:59;;;;;;;546.00;505.50;;;8.50;43.50;;;;;;5060349;28;20417;-71
2022/12/21 02:51:41;;;;;;;442.37;415.83;;;8.60;43.20;;;;;;5062608;28;20405;-71
2022/12/21 02:54:08;;;;;;;212.60;197.83;;;8.70;42.70;;;;;;5061034;28;20409;-70
2022/12/21 02:56:33;;;;;;;399.70;372.17;;;8.80;42.80;;;;;;5080579;28;20929;-71
2022/12/21 02:59:00;;;;;;;344.50;320.90;;;8.90;41.80;;;;;;5097053;28;20527;-71
2022/12/21 03:01:54;;;;;;;487.77;452.93;;;9.00;42.50;;;;;;5097226;28;20647;-71
2022/12/21 03:04:45;;;;;;;484.80;449.73;;;9.20;42.40;;;;;;5082409;28;20427;-71
2022/12/21 03:07:46;;;;;;;477.97;445.33;;;9.40;41.70;;;;;;5082516;28;20502;-71
2022/12/21 03:10:38;;;;;;;442.50;409.60;;;9.50;40.80;;;;;;5079815;28;20407;-71
2022/12/21 03:13:18;;;;;;;514.50;477.27;;;9.50;40.80;;;;;;5075861;28;20776;-70
2022/12/21 03:16:03;;;;;;;432.27;401.60;;;9.50;38.90;;;;;;5080498;28;20771;-70
2022/12/21 03:18:44;;;;;;;562.27;518.90;;;9.50;39.10;;;;;;5077770;28;20471;-69
2022/12/21 03:21:27;;;;;;;423.27;393.70;;;9.50;40.00;;;;;;5077758;28;20904;-70
2022/12/21 03:24:05;;;;;;;454.47;420.20;;;9.50;39.80;;;;;;5074115;28;20423;-70
2022/12/21 03:26:43;;;;;;;514.97;480.87;;;9.50;39.30;;;;;;5076909;28;20488;-71
2022/12/21 03:29:13;;;;;;;554.03;515.17;;;9.60;39.30;;;;;;5067826;28;20421;-71
2022/12/21 03:31:44;;;;;;;539.27;503.17;;;9.50;38.20;;;;;;5076757;28;20408;-70
2022/12/21 03:34:20;;;;;;;254.67;236.97;;;9.50;38.30;;;;;;5074215;28;20408;-71
2022/12/21 03:36:56;;;;;;;318.10;295.87;;;9.50;38.10;;;;;;5076664;28;20458;-69
2022/12/21 03:39:25;;;;;;;335.23;310.13;;;9.50;38.40;;;;;;5074928;28;20443;-70
2022/12/21 03:41:57;;;;;;;441.93;411.53;;;9.50;38.70;;;;;;5074886;28;20448;-69
2022/12/21 03:44:31;;;;;;;467.17;432.20;;;9.50;39.10;;;;;;5077485;28;20881;-70
2022/12/21 03:47:02;;;;;;;403.07;374.53;;;9.60;38.90;;;;;;5076284;28;20495;-69
2022/12/21 03:49:58;;;;;;;313.30;291.83;;;9.60;37.90;;;;;;5077382;28;20462;-69
2022/12/21 03:52:32;;;;;;;581.13;543.93;;;9.60;38.20;;;;;;5075897;28;20456;-70
2022/12/21 03:55:20;;;;;;;444.00;412.73;;;9.60;38.40;;;;;;5071921;28;20745;-70
2022/12/21 03:57:46;;;;;;;462.23;431.43;;;9.60;38.70;;;;;;5059892;28;20417;-69
2022/12/21 04:00:12;;;;;;;334.90;311.43;;;9.60;38.50;;;;;;5059009;28;20421;-70
2022/12/21 04:02:44;;;;;;;413.87;384.57;;;9.60;38.50;;;;;;5058691;28;20425;-70
2022/12/21 04:05:20;;;;;;;309.60;289.03;;;9.60;38.00;;;;;;5059057;28;20421;-70
2022/12/21 04:07:48;;;;;;;634.83;591.37;;;9.60;37.80;;;;;;5058112;28;20459;-71
2022/12/21 04:10:16;;;;;;;565.30;525.50;;;9.70;38.00;;;;;;5057720;28;20421;-70
2022/12/21 04:12:42;;;;;;;306.03;284.67;;;9.70;37.90;;;;;;5055581;28;20978;-71
2022/12/21 04:15:14;;;;;;;427.80;399.53;;;9.70;38.30;;;;;;5058306;28;20425;-70
2022/12/21 04:17:41;;;;;;;410.90;383.83;;;9.80;38.10;;;;;;5059527;28;20409;-70
2022/12/21 04:20:13;;;;;;;212.13;198.10;;;9.80;36.90;;;;;;5060093;28;20470;-70
2022/12/21 04:28:27;;;;;;;294.03;273.73;;;9.90;37.00;;;;;;5060141;28;20447;-71
2022/12/21 04:30:53;;;;;;;281.07;261.20;;;9.90;37.00;;;;;;5059314;28;20421;-71
2022/12/21 04:33:20;;;;;;;418.20;388.47;;;10.00;36.20;;;;;;5059067;28;20550;-70
2022/12/21 04:38:34;;;;;;;501.60;469.77;;;10.00;35.40;;;;;;5055939;28;20788;-70
2022/12/21 04:40:59;;;;;;;438.57;407.40;;;10.00;36.20;;;;;;5055339;28;20424;-70
2022/12/21 04:43:25;;;;;;;476.27;441.30;;;10.00;34.80;;;;;;5057540;28;20780;-70
2022/12/21 04:46:05;;;;;;;502.37;465.63;;;10.00;36.20;;;;;;5058117;28;20282;-70
2022/12/21 04:48:31;;;;;;;297.00;275.30;;;10.00;35.60;;;;;;5058001;28;20409;-70
2022/12/21 04:51:03;;;;;;;621.10;574.83;;;10.00;36.20;;;;;;5057502;28;20405;-70
2022/12/21 04:53:28;;;;;;;470.13;437.90;;;10.10;36.20;;;;;;5057967;28;20453;-70
2022/12/21 04:55:54;;;;;;;306.93;285.60;;;10.10;36.20;;;;;;5057589;28;20467;-70
2022/12/21 04:58:19;;;;;;;432.30;401.57;;;10.10;36.20;;;;;;5055829;28;20224;-70
2022/12/21 05:00:45;;;;;;;541.47;502.00;;;10.20;35.70;;;;;;5055423;28;20265;-71
2022/12/21 05:03:10;;;;;;;324.60;303.03;;;10.20;35.20;;;;;;5057382;28;20293;-70
2022/12/21 05:05:36;;;;;;;203.90;189.57;;;10.10;36.20;;;;;;5056739;28;20210;-72
2022/12/21 05:08:01;;;;;;;579.27;539.20;;;10.10;36.20;;;;;;5057546;28;20183;-72
2022/12/21 05:10:27;;;;;;;429.70;401.23;;;10.10;36.20;;;;;;5059786;28;20178;-71
2022/12/21 05:12:52;;;;;;;367.50;341.57;;;10.10;37.10;;;;;;5058081;28;20187;-71
2022/12/21 05:15:18;;;;;;;414.17;387.77;;;10.10;37.50;;;;;;5055806;28;20190;-70
2022/12/21 05:17:43;;;;;;;365.63;338.40;;;10.20;37.80;;;;;;5056921;28;20186;-71
2022/12/21 05:20:09;;;;;;;584.10;542.97;;;10.20;36.80;;;;;;5054340;28;20200;-70
2022/12/21 05:22:35;;;;;;;488.30;453.37;;;10.10;35.20;;;;;;5055939;28;20535;-70
2022/12/21 05:25:00;;;;;;;264.13;247.40;;;10.10;36.20;;;;;;5054409;28;20557;-70
2022/12/21 05:27:26;;;;;;;623.33;580.70;;;10.20;36.30;;;;;;5054672;28;20202;-70
2022/12/21 05:29:51;;;;;;;529.83;490.60;;;10.30;36.40;;;;;;5054595;28;20166;-70
2022/12/21 05:32:17;;;;;;;658.17;609.37;;;10.20;34.90;;;;;;5054296;28;20184;-70
2022/12/21 05:34:42;;;;;;;356.83;334.07;;;10.20;35.70;;;;;;5054321;28;20545;-70
2022/12/21 05:37:08;;;;;;;444.07;413.10;;;10.30;36.40;;;;;;5052019;28;20671;-70
2022/12/21 05:39:34;;;;;;;556.67;521.00;;;10.30;35.60;;;;;;5052424;28;20687;-70
2022/12/21 05:42:01;;;;;;;260.10;242.53;;;10.30;35.30;;;;;;5052234;28;20179;-70
2022/12/21 05:44:27;;;;;;;576.43;539.50;;;10.30;35.70;;;;;;5050931;28;20417;-70
2022/12/21 05:46:52;;;;;;;590.50;551.50;;;10.30;34.90;;;;;;5052183;28;20533;-70
2022/12/21 05:49:18;;;;;;;414.90;386.77;;;10.40;34.40;;;;;;5052213;28;20496;-70
2022/12/21 05:51:46;;;;;;;391.80;366.13;;;10.40;33.10;;;;;;5052114;28;20167;-69
2022/12/21 05:54:12;;;;;;;545.63;506.17;;;10.30;33.80;;;;;;5050940;28;20174;-69
2022/12/21 05:56:38;;;;;;;500.00;467.50;;;10.30;32.80;;;;;;5052067;28;20440;-69
2022/12/21 05:59:03;;;;;;;566.97;524.77;;;10.30;34.90;;;;;;5052196;28;20477;-69
2022/12/21 06:01:29;;;;;;;549.83;508.27;;;10.40;34.10;;;;;;5052194;28;20194;-70
2022/12/21 06:03:55;;;;;;;501.27;467.40;;;10.30;33.20;;;;;;5051955;28;20186;-69
2022/12/21 06:06:20;;;;;;;271.80;251.93;;;10.20;35.00;;;;;;5052068;28;20218;-68
2022/12/21 06:08:46;;;;;;;392.50;367.10;;;10.20;34.50;;;;;;5052239;28;20171;-69
2022/12/21 06:11:17;;;;;;;312.90;290.50;;;10.10;34.60;;;;;;5050705;28;20278;-69
2022/12/21 06:13:43;;;;;;;363.80;339.50;;;10.10;35.40;;;;;;5051608;28;20719;-69
2022/12/21 06:16:16;;;;;;;367.83;342.30;;;10.20;35.40;;;;;;5051336;28;20512;-69
2022/12/21 06:18:42;;;;;;;399.40;375.40;;;10.20;34.60;;;;;;5052321;28;20201;-69
2022/12/21 06:21:09;;;;;;;378.80;349.47;;;10.10;35.30;;;;;;5052362;28;20502;-69
2022/12/21 06:23:36;;;;;;;520.97;482.63;;;10.20;35.00;;;;;;5051759;28;20175;-70
2022/12/21 06:26:03;;;;;;;516.50;477.90;;;10.10;33.70;;;;;;5051924;28;20484;-70
2022/12/21 06:28:30;;;;;;;309.60;286.67;;;10.20;34.70;;;;;;5051941;28;20455;-70
2022/12/21 06:31:04;;;;;;;467.37;434.63;;;10.30;34.10;;;;;;5051898;28;20474;-71
2022/12/21 06:33:30;;;;;;;430.97;398.23;;;10.30;33.00;;;;;;5052270;28;20499;-69
2022/12/21 06:35:56;;;;;;;557.07;522.80;;;10.30;32.40;;;;;;5051275;28;20523;-70
2022/12/21 06:38:23;;;;;;;428.90;399.60;;;10.30;31.80;;;;;;5051412;28;20225;-70
2022/12/21 06:40:56;;;;;;;257.23;240.20;;;10.30;32.70;;;;;;5052022;28;20167;-71
2022/12/21 06:43:22;;;;;;;543.80;507.50;;;10.20;31.10;;;;;;5051697;28;20405;-70
2022/12/21 06:46:03;;;;;;;608.77;567.03;;;10.20;31.10;;;;;;5050215;28;20804;-68
2022/12/21 06:48:31;;;;;;;455.17;424.43;;;10.20;31.10;;;;;;5051412;28;20186;-69
2022/12/21 06:50:59;;;;;;;377.50;350.23;;;10.10;30.30;;;;;;5051489;28;20408;-69
2022/12/21 06:53:28;;;;;;;526.93;487.53;;;9.90;31.80;;;;;;5051689;28;20413;-68
2022/12/21 06:56:05;;;;;;;673.73;625.77;;;9.80;31.20;;;;;;5051096;28;20514;-68
2022/12/21 06:58:31;;;;;;;625.87;574.10;;;9.70;31.70;;;;;;5051493;28;20837;-68
2022/12/21 07:01:06;;;;;;;465.37;429.60;;;9.50;32.90;;;;;;5051422;28;20459;-70
2022/12/21 07:03:32;;;;;;;451.87;420.27;;;9.30;33.20;;;;;;5051163;28;20408;-70
2022/12/21 07:05:57;;;;;;;357.60;332.30;;;9.20;34.10;;;;;;5051310;28;20432;-69
2022/12/21 07:08:23;;;;;;;353.60;328.77;;;9.10;34.80;;;;;;5051402;28;20175;-69
2022/12/21 07:10:49;;;;;;;351.00;327.67;;;9.00;35.60;;;;;;5051438;28;20556;-69
2022/12/21 07:13:14;;;;;;;412.50;382.90;;;8.90;36.20;;;;;;5050997;28;20628;-69
2022/12/21 07:15:40;;;;;;;588.90;545.47;;;8.90;36.20;;;;;;5051269;28;20190;-69
2022/12/21 07:18:05;;;;;;;322.93;301.93;;;8.80;36.20;;;;;;5051352;28;20416;-69
2022/12/21 07:20:31;;;;;;;419.43;388.77;;;8.70;37.10;;;;;;5051471;28;20533;-70
2022/12/21 07:22:57;;;;;;;393.23;363.70;;;8.70;36.70;;;;;;5051000;28;20178;-69
2022/12/21 07:25:22;;;;;;;565.03;521.67;;;8.70;37.60;;;;;;5049916;28;20209;-69
2022/12/21 07:27:48;;;;;;;536.53;497.73;;;8.70;36.50;;;;;;5049981;28;20548;-69
2022/12/21 07:30:13;;;;;;;342.93;319.10;;;8.60;36.20;;;;;;5054800;28;20205;-69
2022/12/21 07:32:39;;;;;;;406.10;379.50;;;8.60;36.60;;;;;;5054404;28;20561;-69
2022/12/21 07:35:05;;;;;;;496.93;459.70;;;8.60;37.50;;;;;;5054553;28;20232;-68
2022/12/21 07:37:31;;;;;;;407.20;377.50;;;8.60;36.60;;;;;;5053467;28;20435;-68
2022/12/21 07:39:56;;;;;;;551.57;513.00;;;8.60;36.40;;;;;;5053333;28;20412;-69
2022/12/21 07:42:21;;;;;;;286.63;267.87;;;8.60;36.60;;;;;;5054348;28;20183;-70
2022/12/21 07:44:47;;;;;;;365.10;339.13;;;8.60;35.90;;;;;;5054620;28;20179;-70
2022/12/21 07:47:12;;;;;;;562.10;520.20;;;8.60;35.90;;;;;;5054616;28;20222;-69
2022/12/21 07:49:38;;;;;;;484.53;448.37;;;8.60;35.90;;;;;;5054483;28;20174;-69
2022/12/21 07:52:03;;;;;;;404.50;376.03;;;8.60;35.90;;;;;;5054090;28;20539;-70
2022/12/21 07:54:29;;;;;;;557.87;517.33;;;8.60;35.90;;;;;;5052863;28;20233;-69
2022/12/21 07:56:55;;;;;;;476.93;441.17;;;8.60;35.90;;;;;;5055795;28;20205;-69
2022/12/21 07:59:20;;;;;;;516.33;478.07;;;8.60;35.60;;;;;;5078142;28;20341;-69
2022/12/21 08:01:46;;;;;;;580.27;537.37;;;8.60;35.70;;;;;;5066750;28;20182;-69
2022/12/21 08:04:11;;;;;;;458.80;426.20;;;8.70;35.10;;;;;;5069124;28;20208;-69
2022/12/21 08:06:37;;;;;;;481.07;446.67;;;8.70;35.00;;;;;;5068441;28;20343;-69
2022/12/21 08:09:03;;;;;;;378.10;349.70;;;8.80;34.50;;;;;;5069584;28;20240;-69
2022/12/21 08:11:29;;;;;;;362.10;335.77;;;8.80;34.20;;;;;;5075827;28;20182;-69
2022/12/21 08:13:55;;;;;;;474.37;440.07;;;8.80;34.10;;;;;;5062508;28;20445;-69
2022/12/21 08:16:21;;;;;;;463.77;430.90;;;8.80;34.10;;;;;;5065303;28;20450;-69
2022/12/21 08:18:48;;;;;;;377.90;353.40;;;8.80;34.90;;;;;;5069652;28;20489;-69
2022/12/21 08:21:14;;;;;;;359.33;336.23;;;8.80;34.50;;;;;;5085164;28;20514;-69
2022/12/21 08:23:40;;;;;;;295.00;274.97;;;8.80;34.30;;;;;;5069697;28;21005;-69
2022/12/21 08:26:10;;;;;;;355.73;331.43;;;8.90;34.00;;;;;;5067535;28;20558;-69
2022/12/21 08:28:36;;;;;;;421.30;390.93;;;8.90;34.00;;;;;;5063380;28;20414;-69
2022/12/21 08:31:08;;;;;;;444.77;411.70;;;8.90;33.80;;;;;;5067010;28;20427;-69
2022/12/21 08:33:33;;;;;;;601.00;556.07;;;8.80;34.20;;;;;;5068732;28;20178;-69
2022/12/21 08:35:59;;;;;;;536.20;499.47;;;8.80;35.00;;;;;;5068421;28;20452;-69
2022/12/21 08:38:25;;;;;;;508.47;473.20;;;8.80;34.70;;;;;;5069188;28;20188;-69
2022/12/21 08:40:51;;;;;;;416.87;386.33;;;8.80;35.40;;;;;;5069637;28;20182;-69
2022/12/21 08:43:17;;;;;;;441.10;412.13;;;8.90;35.00;;;;;;5068169;28;20182;-69
2022/12/21 08:45:43;;;;;;;476.17;440.07;;;8.90;35.30;;;;;;5068597;28;20432;-69
2022/12/21 08:48:09;;;;;;;361.30;335.50;;;8.90;35.60;;;;;;5070725;28;20412;-70
2022/12/21 08:50:35;;;;;;;453.80;422.70;;;8.90;35.40;;;;;;5072867;28;20408;-69
2022/12/21 08:53:00;;;;;;;534.20;495.07;;;8.90;35.50;;;;;;5054468;28;20179;-70
2022/12/21 08:55:26;;;;;;;431.97;402.83;;;8.90;35.70;;;;;;5068367;28;20216;-69
2022/12/21 08:57:51;;;;;;;355.83;331.67;;;8.90;36.20;;;;;;5071054;28;20178;-69
2022/12/21 09:00:17;;;;;;;565.73;524.57;;;9.00;36.30;;;;;;5073195;28;20170;-68
2022/12/21 09:02:43;;;;;;;445.50;413.60;;;9.10;35.00;;;;;;5072491;28;20196;-69
2022/12/21 09:05:08;;;;;;;628.40;578.37;;;9.20;35.40;;;;;;5072783;28;20178;-70
2022/12/21 09:07:34;;;;;;;368.90;344.43;;;9.20;35.00;;;;;;5071389;28;20201;-69
2022/12/21 09:10:00;;;;;;;449.60;417.63;;;9.30;34.50;;;;;;5072651;28;20178;-70
2022/12/21 09:12:27;;;;;;;441.40;410.40;;;9.30;34.10;;;;;;5072171;28;20420;-69
2022/12/21 09:14:53;;;;;;;241.13;225.20;;;9.30;33.90;;;;;;5072477;28;20173;-69
2022/12/21 09:17:18;;;;;;;365.60;341.60;;;9.40;33.60;;;;;;5072503;28;20420;-70
2022/12/21 09:19:44;;;;;;;514.33;474.60;;;9.50;33.40;;;;;;5081569;28;20732;-69
2022/12/21 09:22:09;;;;;;;501.10;463.10;;;9.50;33.20;;;;;;5062301;28;20264;-68
2022/12/21 09:24:35;;;;;;;519.77;488.43;;;9.50;33.30;;;;;;5072401;28;20194;-69
2022/12/21 09:27:00;;;;;;;359.20;333.40;;;9.40;34.00;;;;;;5055046;28;20606;-69
2022/12/21 09:29:26;;;;;;;483.80;445.90;;;9.40;34.10;;;;;;5051068;28;20210;-69
2022/12/21 09:31:51;;;;;;;426.60;399.33;;;9.30;34.20;;;;;;5066474;28;20185;-69
2022/12/21 09:34:18;;;;;;;438.53;408.00;;;9.30;34.80;;;;;;5071963;28;20177;-69
2022/12/21 09:36:43;;;;;;;308.10;284.27;;;9.30;35.10;;;;;;5072086;28;20240;-68
2022/12/21 09:39:09;;;;;;;285.67;266.03;;;9.40;35.40;;;;;;5055265;28;20518;-69
2022/12/21 09:41:48;;;;;;;453.57;421.33;;;9.50;35.10;;;;;;5063485;28;20331;-69
2022/12/21 09:44:44;;;;;;;490.33;453.43;;;9.50;34.80;;;;;;5070672;28;20235;-68
2022/12/21 09:47:33;;;;;;;614.07;569.10;;;9.60;34.50;;;;;;5072030;28;20761;-69
2022/12/21 09:50:07;;;;;;;281.10;262.67;;;9.70;34.10;;;;;;5070267;28;20420;-69
2022/12/21 09:52:41;;;;;;;328.17;306.93;;;9.80;33.00;;;;;;5071060;28;20518;-69
2022/12/21 09:55:19;;;;;;;675.80;624.60;;;9.90;32.50;;;;;;5071602;28;20412;-69
2022/12/21 09:57:46;;;;;;;363.70;337.67;;;9.90;31.80;;;;;;5071328;28;20426;-69
2022/12/21 10:00:23;;;;;;;309.67;287.70;;;9.80;31.70;;;;;;5071846;28;20412;-69
2022/12/21 10:03:02;;;;;;;719.90;664.83;;;9.80;32.20;;;;;;5068828;28;20917;-69
2022/12/21 10:06:01;;;;;;;308.23;285.20;;;9.90;33.00;;;;;;5071734;28;20485;-68
2022/12/21 10:08:33;;;;;;;400.07;372.43;;;10.00;30.90;;;;;;5071892;28;20788;-69
2022/12/21 10:11:27;;;;;;;267.97;248.07;;;10.00;30.90;;;;;;5071781;28;20930;-69
2022/12/21 10:14:11;;;;;;;498.47;464.20;;;10.20;31.10;;;;;;5069273;28;20400;-69
2022/12/21 10:17:09;;;;;;;348.37;324.27;;;10.20;31.10;;;;;;5050448;28;20429;-68
2022/12/21 10:20:06;;;;;;;545.10;504.27;;;10.30;30.20;;;;;;5053050;28;20770;-69
2022/12/21 10:22:34;;;;;;;312.60;291.70;;;10.30;29.70;;;;;;5070178;28;20450;-69
2022/12/21 10:25:04;;;;;;;332.80;311.53;;;10.50;30.00;;;;;;5070147;28;20420;-69
2022/12/21 10:27:48;;;;;;;428.63;401.90;;;10.60;28.60;;;;;;5071504;28;20486;-70
2022/12/21 10:30:15;;;;;;;251.30;232.00;;;10.60;28.90;;;;;;5070025;28;20429;-69
2022/12/21 10:32:45;;;;;;;258.70;240.87;;;10.80;28.30;;;;;;5087016;28;20501;-69
2022/12/21 10:35:19;;;;;;;460.63;430.57;;;10.90;28.50;;;;;;5071343;28;20443;-70
2022/12/21 10:37:50;;;;;;;422.93;391.77;;;11.00;27.50;;;;;;5072093;28;20423;-69
2022/12/21 10:40:16;;;;;;;301.03;280.10;;;10.70;27.20;;;;;;5071533;28;20510;-70
2022/12/21 10:42:45;;;;;;;356.43;331.20;;;10.70;28.60;;;;;;5071287;28;20778;-69
2022/12/21 10:45:16;;;;;;;490.43;457.13;;;10.90;27.40;;;;;;5071386;28;20466;-68
2022/12/21 10:47:44;;;;;;;336.97;313.73;;;11.00;27.50;;;;;;5071585;28;20520;-69
2022/12/21 10:50:20;;;;;;;562.73;527.80;;;11.20;26.70;;;;;;5071197;28;20451;-68
2022/12/21 10:52:48;;;;;;;657.97;612.20;;;11.40;26.50;;;;;;5071441;28;20406;-68
2022/12/21 10:55:17;;;;;;;524.13;487.57;;;11.50;26.40;;;;;;5070060;28;20751;-69
2022/12/21 10:57:42;;;;;;;579.40;543.53;;;11.70;26.10;;;;;;5070105;28;20424;-69
2022/12/21 11:00:22;;;;;;;413.97;384.07;;;11.50;25.00;;;;;;5071175;28;20453;-69
2022/12/21 11:02:49;;;;;;;504.93;471.10;;;11.70;24.10;;;;;;5087574;28;20188;-69
2022/12/21 11:05:24;;;;;;;556.93;517.70;;;11.80;24.30;;;;;;5074464;28;20803;-69
2022/12/21 11:07:49;;;;;;;580.83;542.60;;;11.90;23.90;;;;;;5090311;28;20550;-69
2022/12/21 11:10:29;;;;;;;287.47;268.33;;;11.70;23.80;;;;;;5075018;28;20956;-68
2022/12/21 11:12:55;;;;;;;482.47;447.77;;;11.80;23.90;;;;;;5074582;28;20181;-69
2022/12/21 11:15:23;;;;;;;621.50;579.03;;;11.90;23.90;;;;;;5060614;28;20945;-68
2022/12/21 11:17:49;;;;;;;303.73;282.77;;;12.10;24.00;;;;;;5054968;28;20225;-68
2022/12/21 11:20:21;;;;;;;474.13;439.87;;;12.40;23.30;;;;;;5065622;28;20431;-68
2022/12/21 11:22:52;;;;;;;605.53;562.03;;;12.50;22.50;;;;;;5074550;28;20173;-68
2022/12/21 11:25:20;;;;;;;470.60;436.33;;;12.30;22.30;;;;;;5074885;28;20443;-68
2022/12/21 11:27:48;;;;;;;153.93;140.23;;;12.10;22.70;;;;;;5074358;28;20460;-68
2022/12/21 11:30:20;;;;;;;376.23;347.43;;;12.10;22.80;;;;;;5074681;28;20408;-68
2022/12/21 11:32:48;;;;;;;474.47;440.33;;;12.20;22.90;;;;;;5074370;28;20415;-67
2022/12/21 11:38:05;;;;;;;709.33;658.17;;;12.00;22.80;;;;;;5073676;28;20486;-69
2022/12/21 11:40:31;;;;;;;407.83;379.27;;;12.10;22.90;;;;;;5074527;28;20427;-69
2022/12/21 11:42:58;;;;;;;254.50;233.33;;;12.10;23.40;;;;;;5074591;28;20519;-73
2022/12/21 11:45:28;;;;;;;300.77;277.23;;;12.20;22.90;;;;;;5073134;28;20506;-69
2022/12/21 11:47:56;;;;;;;662.20;615.77;;;12.30;23.20;;;;;;5048704;28;20289;-70
2022/12/21 11:50:28;;;;;;;500.37;465.20;;;12.50;23.40;;;;;;5036138;28;20425;-70
2022/12/21 11:53:18;;;;;;;307.00;285.13;;;12.60;22.70;;;;;;5033239;28;20424;-71
2022/12/21 11:56:05;;;;;;;386.50;358.23;;;12.60;23.50;;;;;;5033168;28;20481;-71
2022/12/21 11:59:01;;;;;;;610.33;567.17;;;12.60;22.60;;;;;;5034208;28;20784;-70
2022/12/21 12:02:00;;;;;;;169.30;154.57;;;12.60;23.10;;;;;;5032770;28;20426;-70
2022/12/21 12:04:56;;;;;;;534.77;499.00;;;12.60;22.60;;;;;;5034136;28;20505;-69
2022/12/21 12:07:49;;;;;;;612.97;569.47;;;12.50;22.40;;;;;;5033982;28;20472;-69
2022/12/21 12:11:05;;;;;;;567.10;525.47;;;12.30;23.50;;;;;;5034091;28;20410;-70
2022/12/21 12:14:04;;;;;;;630.30;585.37;;;12.30;23.80;;;;;;5010908;28;20422;-70
2022/12/21 12:16:58;;;;;;;700.97;650.70;;;12.40;24.20;;;;;;5033965;28;20476;-70
2022/12/21 12:20:03;;;;;;;608.37;567.10;;;12.60;24.10;;;;;;5034026;28;20410;-70
2022/12/21 12:22:44;;;;;;;380.93;352.47;;;12.90;23.50;;;;;;5033246;28;20430;-70
2022/12/21 12:25:41;;;;;;;567.17;525.80;;;12.90;23.20;;;;;;5033721;28;20406;-70
2022/12/21 12:28:50;;;;;;;616.43;571.27;;;12.80;23.00;;;;;;5033868;28;20497;-69
2022/12/21 12:31:25;;;;;;;454.20;421.23;;;12.70;24.10;;;;;;5028640;28;20779;-70
2022/12/21 12:33:59;;;;;;;671.17;624.10;;;12.70;24.40;;;;;;5034292;28;20459;-70
2022/12/21 12:36:59;;;;;;;615.30;572.87;;;12.80;24.30;;;;;;5034176;28;20499;-69
2022/12/21 12:39:52;;;;;;;606.23;563.53;;;12.90;24.20;;;;;;5033836;28;20410;-68
2022/12/21 12:42:31;;;;;;;120.20;109.40;;;13.10;24.10;;;;;;5033344;28;20896;-68
2022/12/21 12:45:15;;;;;;;252.27;233.17;;;13.40;22.70;;;;;;5032443;28;20429;-68
2022/12/21 12:47:44;;;;;;;721.83;669.53;;;13.50;21.40;;;;;;5033210;28;20571;-68
2022/12/21 12:50:26;;;;;;;465.37;431.90;;;13.60;21.90;;;;;;5034008;28;20413;-68